AirNav   Everest Fuels
 
 1204 users online  

AZ31 Serene Field Airport
Maricopa, Arizona, USA

GOING TO MARICOPA?


FAA INFORMATION EFFECTIVE 05 DECEMBER 2019

Location

FAA Identifier: AZ31
Lat/Long: 32-59-48.1740N 112-16-20.5340W
32-59.802900N 112-16.342233W
32.9967150,-112.2723706
(estimated)
Elevation: 1456 ft. / 444 m (estimated)
Variation: 13E (1985)
From city: 14 miles SW of MARICOPA, AZ
Time zone: UTC -7 (year round; does not observe DST)
Zip code: 85239

Airport Operations

Airport use: Private use. Permission required prior to landing
Activation date: 11/1988
Control tower: no
ARTCC: ALBUQUERQUE CENTER
FSS: PRESCOTT FLIGHT SERVICE STATION
Attendance: UNATNDD
Segmented circle: no

Airport Communications

WX AWOS-3 at A39 (18 nm E): 126.900 (520-568-7704)

Nearby radio navigation aids

VOR radial/distance  VOR name  Freq  Var
TFDr278/19.5STANFIELD VORTAC114.8012E
GBNr069/20.4GILA BEND VORTAC116.6014E
PXRr198/30.3PHOENIX VORTAC115.6012E
IWAr226/36.2WILLIE VORTAC113.3013E
BXKr121/39.0BUCKEYE VORTAC110.6014E

 
NDB name  Hdg/Dist  Freq  Var  ID
CHANDLER223/28.440712ECHD -.-. .... -..

Airport Services

Runway Information

Runway 17/35

Dimensions: 3960 x 100 ft. / 1207 x 30 m
Surface: dirt
RUNWAY 17  RUNWAY 35
Traffic pattern: leftleft

Airport Ownership and Management from official FAA records

Ownership: Privately-owned
Owner: DILLION AERO, INC
8009 E. DILLONS WAY
SCOTTSDALE, AZ 85260
Phone (480) 333-5450
Manager: CHRIS DILLON
8009 E. DILLONS WAY
SCOTTSDALE, AZ 85260
Phone (480) 333-5450

Airport Operational Statistics

Aircraft based on the field: 3
Single engine airplanes: 2
Gliders airplanes: 1
    

Additional Remarks

FOR CD CTC LUKE APCH AT 623-856-7361. IF UNA, CTC PHOENIX APCH AT 602-306-2565.

Instrument Procedures

There are no published instrument procedures at AZ31.

Some nearby airports with instrument procedures:

P19 - Stellar Airpark (25 nm NE)
KCGZ - Casa Grande Municipal Airport (26 nm E)
KGYR - Phoenix Goodyear Airport (26 nm N)
KCHD - Chandler Municipal Airport (28 nm NE)
KPHX - Phoenix Sky Harbor International Airport (29 nm NE)
 
Loc | Ops | Rwys | IFR | FBO | Links
Com | Nav | Svcs | Stats | Notes
Area around AZ31 (Serene Field Airport)
 
Road maps at: MapQuest Bing Google
 
Aerial photo
No photo
 
Sectional chart

 
Airport distance calculator
Flying to Serene Field Airport? Find the distance to fly.

From to AZ31

Sunrise and sunset
Times for 05-Dec-2019
 Local
(UTC-7)
 Zulu
(UTC)
Morning civil twilight06:5113:51
Sunrise07:1814:18
Sunset17:2100:21
Evening civil twilight17:4800:48

Current date and time
Zulu (UTC)  06-Dec-2019 00:50:22
Local (UTC-7)  05-Dec-2019 17:50:22
 
METAR
KA39 
18nm E 
060035Z AUTO 33003KT 10SM CLR 18/11 A3015 RMK AO2
KGXF 
23nm W 
052258Z 00000KT 10SM FEW050 BKN250 20/10 A3007 RMK AO2A CONTRAILS SLP177 T02040095
KCGZ 
26nm E 
052356Z AUTO 00000KT 10SM CLR 19/09 A3010 RMK AO2 SLP188 T01940094 10200 20172 53002
KGYR 
26nm N 
052347Z 17003KT 10SM FEW040 SCT250 20/09 A3009
KCHD 
28nm NE 
052347Z 21005KT 10SM FEW070 20/09 A3009
KPHX 
28nm NE 
052351Z 24003KT 10SM SCT050 BKN250 BKN290 21/08 A3007 RMK AO2 SLP172 T02060078 10217 20172 55002
KLUF 
32nm N 
052358Z AUTO 27003KT 10SM CLR 20/08 A3007 RMK AO2 SLP178 T02000080 10209 20195 53001
KGEU 
32nm N 
052356Z VBR03KT 10SM FEW060 SCT200 20/08 A3010
KBXK 
33nm NW 
060035Z AUTO 23003KT 10SM CLR 17/12 A3010 RMK A01
TAF
KPHX 
28nm NE 
052109Z 0521/0624 25004KT P6SM FEW050 BKN250 FM060300 10005KT P6SM FEW070 BKN200 FM062300 27005KT P6SM BKN200
KLUF 
32nm N 
052000Z 0520/0702 VRB06KT 9999 FEW060 SCT180 QNH3007INS BECMG 0600/0601 VRB06KT 9999 SCT200 QNH3012INS TX21/0523Z TN11/0614Z
NOTAMs
Click for the latest NOTAMs
NOTAMs are issued by the DoD/FAA and will open in a separate window not controlled by AirNav.

 

 
 

Would you like to see your business listed on this page?

 If your business provides an interesting product or service to pilots, flight crews, aircraft, or users of the Serene Field Airport, you should consider listing it here.  To start the listing process, click on the button below
 
Add a business
 

Other Pages about Serene Field Airport

Update a link
 
Copyright © AirNav, LLC. All rights reserved. Privacy Policy  Contact